Tur — UGLB — position and weather

sailwx.info

Track history (hours):
 
Tides and Currents Weather Stations Pressure Air Temp Water Temp Dewpoint Dewpoint Depression Visibility Wind Speed Wind Dir Waves Ship Positions

Tur

Last reported at 2018-Apr-25 07:46 UTC. Time now 2018-Apr-25 08:57 UTC.
Position N 60°00' E 029°43'.

Length 36 m; draft 4.5 m.

Type: Tug. MMSI: 273444990.

Date/timePositionNaut miles runAvg speedWind from/ knotsBaromVisibWave heightAir tempDewpointWater temp
2018-Apr-25 07:46N 60°00' E 029°43'0 0.0
2018-Apr-25 07:18N 60°00' E 029°43'0 0.0
2018-Apr-25 06:59N 60°00' E 029°43'0 0.0
2018-Apr-24 05:54N 60°00' E 029°43'0 0.0
2018-Apr-23 05:00N 60°00' E 029°43'0 0.0
2018-Apr-23 04:30N 60°00' E 029°43'0 0.0
2018-Apr-23 04:00N 60°00' E 029°43'0 0.0
2018-Apr-21 09:34N 60°00' E 029°43'0 0.0
2018-Apr-19 15:42N 60°00' E 029°43'0 0.0
2018-Apr-19 05:56N 60°00' E 029°43'0 0.0
2018-Apr-18 23:32N 60°00' E 029°43'0 0.5
2018-Apr-18 23:30N 60°00' E 029°43'0 0.0
2018-Apr-18 13:32N 60°00' E 029°43'3 0.1
2018-Apr-16 16:52N 59°58' E 029°47'410.9
2018-Apr-16 16:30N 59°57' E 029°54'511.0
2018-Apr-16 16:00N 59°55' E 030°04'4 7.5
2018-Apr-16 15:30N 59°53' E 030°11'1 1.9
2018-Apr-16 15:00N 59°53' E 030°13'0 0.0
2018-Apr-16 14:30N 59°53' E 030°13'3 4.6
2018-Apr-16 13:58N 59°54' E 030°08'4 8.4
2018-Apr-16 13:29N 59°55' E 030°00'5 9.9
2018-Apr-16 13:00N 59°57' E 029°52'6 1.0
2018-Apr-16 07:25N 60°00' E 029°43'0 0.0
2018-Apr-15 23:09N 60°00' E 029°43'0 0.0
2018-Apr-15 22:58N 60°00' E 029°43'0 0.0
2018-Apr-15 22:28N 60°00' E 029°43'0 0.0
2018-Apr-15 15:15N 60°00' E 029°43'0 0.0
2018-Apr-15 15:00N 60°00' E 029°43'  
Track history (hours):
 
Tides and Currents Weather Stations Pressure Air Temp Water Temp Dewpoint Dewpoint Depression Visibility Wind Speed Wind Dir Waves Ship Positions

Tur

Last reported at 2018-Apr-25 07:46 UTC. Time now 2018-Apr-25 08:57 UTC.
Position N 60°00' E 029°43'.

Length 36 m; draft 4.5 m.

Type: Tug. MMSI: 273444990.

Date/timePositionNaut miles runAvg speedWind from/ knotsBaromVisibWave heightAir tempDewpointWater temp
2018-Apr-25 07:46N 60°00' E 029°43'0 0.0
2018-Apr-25 07:18N 60°00' E 029°43'0 0.0
2018-Apr-25 06:59N 60°00' E 029°43'0 0.0
2018-Apr-24 05:54N 60°00' E 029°43'0 0.0
2018-Apr-23 05:00N 60°00' E 029°43'0 0.0
2018-Apr-23 04:30N 60°00' E 029°43'0 0.0
2018-Apr-23 04:00N 60°00' E 029°43'0 0.0
2018-Apr-21 09:34N 60°00' E 029°43'0 0.0
2018-Apr-19 15:42N 60°00' E 029°43'0 0.0
2018-Apr-19 05:56N 60°00' E 029°43'0 0.0
2018-Apr-18 23:32N 60°00' E 029°43'0 0.5
2018-Apr-18 23:30N 60°00' E 029°43'0 0.0
2018-Apr-18 13:32N 60°00' E 029°43'3 0.1
2018-Apr-16 16:52N 59°58' E 029°47'410.9
2018-Apr-16 16:30N 59°57' E 029°54'511.0
2018-Apr-16 16:00N 59°55' E 030°04'4 7.5
2018-Apr-16 15:30N 59°53' E 030°11'1 1.9
2018-Apr-16 15:00N 59°53' E 030°13'0 0.0
2018-Apr-16 14:30N 59°53' E 030°13'3 4.6
2018-Apr-16 13:58N 59°54' E 030°08'4 8.4
2018-Apr-16 13:29N 59°55' E 030°00'5 9.9
2018-Apr-16 13:00N 59°57' E 029°52'6 1.0
2018-Apr-16 07:25N 60°00' E 029°43'0 0.0
2018-Apr-15 23:09N 60°00' E 029°43'0 0.0
2018-Apr-15 22:58N 60°00' E 029°43'0 0.0
2018-Apr-15 22:28N 60°00' E 029°43'0 0.0
2018-Apr-15 15:15N 60°00' E 029°43'0 0.0
2018-Apr-15 15:00N 60°00' E 029°43'  

Dump ship's entire track history